Time;durP1;ratioP1;P1;durP2;ratioP2;P2;SDS_P1;SDS_P2;PMS_P1;PMS_P2;Temp;Humidity;BMP_temperature;BMP_pressure;BME280_temperature;BME280_humidity;BME280_pressure;Samples;Min_cycle;Max_cycle;Signal;HPM_P1;HPM_P2
2023/06/25 00:19:00;;;;;;;;;;;;;;;26.61;49.04;100434.63;41738238;28;19936;-78
2023/06/25 00:39:02;;;;;;;;;;;;;;;26.57;49.12;100437.75;41757695;28;19925;-77
2023/06/25 00:59:03;;;;;;;;;;;;;;;26.53;49.41;100451.31;41757661;28;19929;-77
2023/06/25 01:19:03;;;;;;;;;;;;;;;26.52;49.35;100439.06;41743974;28;19933;-78
2023/06/25 01:39:04;;;;;;;;;;;;;;;26.50;49.38;100424.22;41734664;28;19940;-78
2023/06/25 01:59:04;;;;;;;;;;;;;;;26.46;49.79;100409.59;41737617;28;19990;-76
2023/06/25 02:19:10;;;;;;;;;;;;;;;26.43;49.16;100421.38;41737835;28;19951;-76
2023/06/25 02:39:11;;;;;;;;;;;;;;;26.39;49.38;100427.13;41739241;28;19924;-77
2023/06/25 02:59:11;;;;;;;;;;;;;;;26.36;49.68;100425.63;41753091;28;19925;-76
2023/06/25 03:19:11;;;;;;;;;;;;;;;26.34;49.93;100439.06;42043115;22;20801;-76
2023/06/25 03:39:12;;;;;;;;;;;;;;;26.34;50.28;100439.06;41583320;28;20006;-76
2023/06/25 03:59:13;;;;;;;;;;;;;;;26.32;50.26;100437.53;41593364;28;19925;-76
2023/06/25 04:19:13;;;;;;;;;;;;;;;26.31;49.77;100436.69;41733730;28;19933;-75
2023/06/25 04:39:15;;;;;;;;;;;;;;;26.30;49.93;100439.50;41772399;28;20039;-75
2023/06/25 04:59:15;;;;;;;;;;;;;;;26.28;49.74;100442.31;41768127;28;20023;-75
2023/06/25 05:19:16;;;;;;;;;;;;;;;26.27;49.38;100453.06;41760235;28;20897;-75
2023/06/25 05:39:16;;;;;;;;;;;;;;;26.26;49.04;100465.50;41757834;28;20361;-76
2023/06/25 05:59:16;;;;;;;;;;;;;;;26.25;48.84;100465.69;41756383;28;19939;-75
2023/06/25 06:19:17;;;;;;;;;;;;;;;26.20;48.35;100469.59;41738505;28;19925;-75
2023/06/25 06:39:17;;;;;;;;;;;;;;;26.17;48.46;100474.38;41764522;28;19929;-75
2023/06/25 06:59:18;;;;;;;;;;;;;;;26.19;48.61;100475.88;41760483;28;19939;-76
2023/06/25 07:19:18;;;;;;;;;;;;;;;26.21;48.79;100473.91;41769325;28;20015;-76
2023/06/25 07:39:29;;;;;;;;;;;;;;;26.23;48.45;100465.81;41783539;28;23546;-76
2023/06/25 07:59:37;;;;;;;;;;;;;;;26.26;48.19;100470.81;41732533;28;19925;-76
2023/06/25 08:19:37;;;;;;;;;;;;;;;26.29;48.43;100462.56;41747752;28;19983;-75
2023/06/25 08:39:38;;;;;;;;;;;;;;;26.34;48.44;100451.47;41760581;28;20030;-76
2023/06/25 08:59:38;;;;;;;;;;;;;;;26.42;48.01;100448.91;41749632;28;20585;-77
2023/06/25 09:19:42;;;;;;;;;;;;;;;26.56;48.21;100426.28;41761986;28;19964;-78
2023/06/25 09:39:42;;;;;;;;;;;;;;;26.69;47.86;100408.13;41768115;28;19932;-77
2023/06/25 09:59:50;;;;;;;;;;;;;;;26.81;48.02;100395.44;41745798;28;20423;-77
2023/06/25 10:19:51;;;;;;;;;;;;;;;26.93;47.80;100393.38;41744276;28;19932;-77
2023/06/25 10:40:00;;;;;;;;;;;;;;;27.04;47.38;100383.47;41762794;28;20384;-76
2023/06/25 11:00:01;;;;;;;;;;;;;;;27.11;47.63;100373.88;41765107;28;19986;-75
2023/06/25 11:20:02;;;;;;;;;;;;;;;27.22;47.20;100352.34;41763386;28;20024;-76
2023/06/25 11:40:02;;;;;;;;;;;;;;;27.34;47.54;100336.91;41773380;28;19960;-77
2023/06/25 12:00:08;;;;;;;;;;;;;;;27.40;47.37;100325.63;41767003;28;19928;-76
2023/06/25 12:20:08;;;;;;;;;;;;;;;27.61;47.46;100321.72;41750494;28;19998;-76
2023/06/25 12:40:09;;;;;;;;;;;;;;;27.71;47.34;100309.13;41778539;28;19982;-77
2023/06/25 13:00:15;;;;;;;;;;;;;;;27.89;48.92;100286.84;41761590;28;19929;-76
2023/06/25 13:20:17;;;;;;;;;;;;;;;28.05;47.86;100286.03;41771942;28;19924;-77
2023/06/25 13:40:17;;;;;;;;;;;;;;;28.17;47.50;100262.59;41778439;28;19925;-76
2023/06/25 14:00:18;;;;;;;;;;;;;;;28.25;46.70;100252.75;41763782;28;19933;-76
2023/06/25 14:20:18;;;;;;;;;;;;;;;28.26;46.50;100232.28;41775760;28;19925;-76
2023/06/25 14:40:18;;;;;;;;;;;;;;;28.29;46.29;100213.31;41765922;28;19931;-75
2023/06/25 15:00:28;;;;;;;;;;;;;;;28.38;46.01;100214.94;41773668;28;19931;-78
2023/06/25 15:20:28;;;;;;;;;;;;;;;28.41;46.05;100201.28;41766772;28;19940;-78
2023/06/25 15:40:29;;;;;;;;;;;;;;;28.42;45.96;100184.31;41779873;28;20300;-77
2023/06/25 16:00:29;;;;;;;;;;;;;;;28.38;45.90;100179.47;41776900;28;19929;-75
2023/06/25 16:20:29;;;;;;;;;;;;;;;28.34;45.44;100179.00;41768774;28;19933;-76
2023/06/25 16:40:31;;;;;;;;;;;;;;;28.32;45.53;100158.88;41794663;28;19976;-75
2023/06/25 17:00:32;;;;;;;;;;;;;;;28.25;45.24;100159.56;41745612;28;20078;-76
2023/06/25 17:20:32;;;;;;;;;;;;;;;28.23;45.25;100171.38;41742554;28;20454;-77
2023/06/25 17:40:33;;;;;;;;;;;;;;;28.29;42.88;100168.03;41732362;28;19924;-77
2023/06/25 18:00:33;;;;;;;;;;;;;;;28.29;43.30;100178.69;41749283;28;19928;-76
2023/06/25 18:20:37;;;;;;;;;;;;;;;28.18;44.93;100173.72;41754284;28;19924;-76
2023/06/25 18:40:37;;;;;;;;;;;;;;;28.06;44.42;100166.13;41772033;28;20024;-77
2023/06/25 19:00:38;;;;;;;;;;;;;;;27.94;43.29;100175.41;41745358;28;19933;-77
2023/06/25 19:20:41;;;;;;;;;;;;;;;27.88;42.79;100189.38;41793613;28;20719;-75
2023/06/25 19:40:41;;;;;;;;;;;;;;;27.77;44.13;100194.06;41769179;28;19925;-77
2023/06/25 20:00:42;;;;;;;;;;;;;;;27.76;42.91;100199.56;41793504;28;20278;-78
2023/06/25 20:20:42;;;;;;;;;;;;;;;27.72;43.02;100188.41;41780361;28;20385;-76
2023/06/25 20:40:42;;;;;;;;;;;;;;;27.67;43.46;100198.72;41778580;28;19933;-76
2023/06/25 21:00:44;;;;;;;;;;;;;;;27.58;44.63;100208.53;41774102;28;19928;-77
2023/06/25 21:20:44;;;;;;;;;;;;;;;27.56;43.15;100212.34;41761896;28;19932;-77
2023/06/25 21:40:44;;;;;;;;;;;;;;;27.52;43.52;100214.50;41763631;28;19925;-75
2023/06/25 22:00:44;;;;;;;;;;;;;;;27.50;43.27;100215.66;41743529;28;20015;-76
2023/06/25 22:20:45;;;;;;;;;;;;;;;27.48;42.69;100211.34;41737736;28;19936;-77
2023/06/25 22:40:45;;;;;;;;;;;;;;;27.40;42.77;100205.97;41768529;28;19933;-77
2023/06/25 23:00:46;;;;;;;;;;;;;;;27.38;42.02;100193.84;41805618;28;19959;-76
2023/06/25 23:20:48;;;;;;;;;;;;;;;27.27;41.68;100179.88;41822434;28;19932;-76
2023/06/25 23:40:49;;;;;;;;;;;;;;;27.13;42.34;100180.53;41820590;28;19943;-77
